createdAt,value
2019-02-18T00:01:19.312Z,99725.06
2019-02-18T00:06:24.753Z,99722.62
2019-02-18T00:11:30.246Z,99728.52
2019-02-18T00:16:35.628Z,99727.23
2019-02-18T00:21:41.244Z,99725.41
2019-02-18T00:26:46.833Z,99730.73
2019-02-18T00:31:52.471Z,99735.44
2019-02-18T00:36:57.833Z,99733.66
2019-02-18T00:42:03.362Z,99743.16
2019-02-18T00:47:08.984Z,99742.05
2019-02-18T00:52:14.425Z,99749.14
2019-02-18T00:57:19.932Z,99745.69
2019-02-18T01:02:26.463Z,99737.52
2019-02-18T01:07:34.895Z,99733.41
2019-02-18T01:12:40.149Z,99735.25
2019-02-18T01:17:45.558Z,99740.05
2019-02-18T01:22:51.031Z,99739.56
2019-02-18T01:27:56.463Z,99742.00
2019-02-18T01:33:01.930Z,99736.69
2019-02-18T01:38:07.476Z,99743.29
2019-02-18T01:43:12.917Z,99739.34
2019-02-18T01:48:18.370Z,99735.30
2019-02-18T01:53:23.911Z,99731.67
2019-02-18T01:58:29.295Z,99733.93
2019-02-18T02:03:34.663Z,99731.77
2019-02-18T02:08:40.104Z,99729.18
2019-02-18T02:13:45.528Z,99721.73
2019-02-18T02:18:51.060Z,99716.01
2019-02-18T02:23:56.521Z,99718.09
2019-02-18T02:29:01.938Z,99720.76
2019-02-18T02:34:07.424Z,99715.48
2019-02-18T02:39:12.991Z,99711.14
2019-02-18T02:44:18.424Z,99709.00
2019-02-18T02:49:23.937Z,99701.02
2019-02-18T02:54:29.362Z,99694.77
2019-02-18T02:59:34.801Z,99689.40
2019-02-18T03:04:40.310Z,99681.41
2019-02-18T03:09:45.741Z,99685.81
2019-02-18T03:14:51.245Z,99690.28
2019-02-18T03:19:56.640Z,99685.81
2019-02-18T03:25:19.390Z,99682.34
2019-02-18T03:30:42.502Z,99676.81
2019-02-18T03:35:48.089Z,99680.49
2019-02-18T03:41:02.751Z,99680.59
2019-02-18T03:46:00.751Z,99671.80
2019-02-18T03:51:06.262Z,99668.20
2019-02-18T03:56:11.882Z,99670.47
2019-02-18T04:01:17.308Z,99656.14
2019-02-18T04:06:22.690Z,99657.87
2019-02-18T04:11:28.181Z,99654.28
2019-02-18T04:16:33.677Z,99648.06
2019-02-18T04:21:39.190Z,99647.19
2019-02-18T04:26:44.559Z,99648.97
2019-02-18T04:31:50.130Z,99642.31
2019-02-18T04:36:55.472Z,99649.89
2019-02-18T04:42:00.968Z,99662.09
2019-02-18T04:47:06.436Z,99652.25
2019-02-18T04:52:11.986Z,99666.88
2019-02-18T04:57:17.453Z,99668.69
2019-02-18T05:02:22.944Z,99667.72
2019-02-18T05:07:28.408Z,99658.76
2019-02-18T05:12:34.004Z,99660.84
2019-02-18T05:17:39.585Z,99657.47
2019-02-18T05:22:45.000Z,99665.95
2019-02-18T05:27:50.391Z,99666.92
2019-02-18T05:32:55.886Z,99677.73
2019-02-18T05:38:01.447Z,99677.34
2019-02-18T05:43:06.925Z,99683.77
2019-02-18T05:48:12.327Z,99687.31
2019-02-18T05:53:17.930Z,99684.57
2019-02-18T05:58:23.430Z,99703.81
2019-02-18T06:03:28.876Z,99706.06
2019-02-18T06:08:34.304Z,99708.00
2019-02-18T06:13:39.861Z,99705.67
2019-02-18T06:18:45.357Z,99697.71
2019-02-18T06:23:52.488Z,99687.20
2019-02-18T06:28:57.968Z,99682.00
2019-02-18T06:34:03.518Z,99691.53
2019-02-18T06:39:09.114Z,99691.56
2019-02-18T06:44:14.586Z,99695.95
2019-02-18T06:49:22.411Z,99697.95
2019-02-18T06:54:28.060Z,99699.02
2019-02-18T06:59:38.124Z,99702.66
2019-02-18T07:04:47.976Z,99703.89
2019-02-18T07:09:59.386Z,99700.39
2019-02-18T07:15:05.218Z,99702.13
2019-02-18T07:20:10.665Z,99704.90
2019-02-18T07:25:16.132Z,99714.37
2019-02-18T07:30:21.700Z,99726.00
2019-02-18T07:35:28.179Z,99724.16
2019-02-18T07:40:33.679Z,99741.83
2019-02-18T07:45:39.163Z,99744.74
2019-02-18T07:50:44.621Z,99747.55
2019-02-18T07:55:49.992Z,99751.92
2019-02-18T08:00:55.575Z,99747.95
2019-02-18T08:06:00.972Z,99756.97
2019-02-18T08:11:06.514Z,99762.08
2019-02-18T08:16:12.028Z,99774.69
2019-02-18T08:21:17.648Z,99769.05
2019-02-18T08:26:23.178Z,99775.17
2019-02-18T08:31:28.793Z,99781.41
2019-02-18T08:36:34.430Z,99784.11
2019-02-18T08:41:40.021Z,99786.70
2019-02-18T08:46:45.457Z,99782.64
2019-02-18T08:51:50.835Z,99788.59
2019-02-18T08:56:56.593Z,99800.91
2019-02-18T09:02:02.152Z,99795.47
2019-02-18T09:07:07.546Z,99795.24
2019-02-18T09:12:13.178Z,99800.57
2019-02-18T09:17:18.700Z,99808.87
2019-02-18T09:22:32.062Z,99815.17
2019-02-18T09:27:37.576Z,99816.55
2019-02-18T09:32:43.253Z,99832.91
2019-02-18T09:37:48.760Z,99832.23
2019-02-18T09:42:54.276Z,99848.04
2019-02-18T09:47:59.920Z,99843.72
2019-02-18T09:53:05.496Z,99847.97
2019-02-18T09:58:11.039Z,99842.59
2019-02-18T10:03:17.137Z,99850.10
2019-02-18T10:08:22.580Z,99861.39
2019-02-18T10:13:28.177Z,99860.26
2019-02-18T10:18:33.736Z,99857.17
2019-02-18T10:23:39.496Z,99858.50
2019-02-18T10:28:45.327Z,99859.39
2019-02-18T10:33:50.959Z,99864.47
2019-02-18T10:38:56.759Z,99863.73
2019-02-18T10:44:02.459Z,99863.85
2019-02-18T10:49:18.911Z,99868.47
2019-02-18T10:54:16.231Z,99880.45
2019-02-18T10:59:21.877Z,99879.22
2019-02-18T11:04:27.598Z,99875.41
2019-02-18T11:09:33.368Z,99884.11
2019-02-18T11:14:39.077Z,99887.23
2019-02-18T11:19:44.560Z,99890.38
2019-02-18T11:24:50.137Z,99895.57
2019-02-18T11:29:55.538Z,99905.72
2019-02-18T11:35:01.285Z,99908.41
2019-02-18T11:40:11.347Z,99911.55
2019-02-18T11:45:16.810Z,99911.44
2019-02-18T11:50:22.468Z,99913.66
2019-02-18T11:55:27.893Z,99912.64
2019-02-18T12:00:33.429Z,99919.08
2019-02-18T12:05:40.305Z,99922.39
2019-02-18T12:10:45.828Z,99930.02
2019-02-18T12:15:51.434Z,99933.15
2019-02-18T12:20:56.923Z,99930.53
2019-02-18T12:26:02.370Z,99931.80
2019-02-18T12:31:08.050Z,99933.36
2019-02-18T12:36:13.595Z,99928.96
2019-02-18T12:41:19.067Z,99928.94
2019-02-18T12:46:24.608Z,99926.09
2019-02-18T12:51:31.260Z,99920.60
2019-02-18T12:56:36.664Z,99928.83
2019-02-18T13:01:42.268Z,99919.64
2019-02-18T13:06:47.743Z,99924.77
2019-02-18T13:11:59.011Z,99922.15
2019-02-18T13:17:00.505Z,99920.14
2019-02-18T13:22:06.074Z,99913.50
2019-02-18T13:27:11.564Z,99918.91
2019-02-18T13:32:17.221Z,99913.81
2019-02-18T13:37:22.703Z,99909.92
2019-02-18T13:42:31.087Z,99906.05
2019-02-18T13:47:37.274Z,99901.34
2019-02-18T13:52:43.029Z,99913.35
2019-02-18T13:57:48.667Z,99914.45
2019-02-18T14:02:54.155Z,99909.87
2019-02-18T14:07:59.575Z,99914.03
2019-02-18T14:13:05.128Z,99919.84
2019-02-18T14:18:10.794Z,99899.63
2019-02-18T14:23:16.707Z,99900.69
2019-02-18T14:28:22.051Z,99904.61
2019-02-18T14:33:27.470Z,99908.73
2019-02-18T14:38:32.922Z,99908.66
2019-02-18T14:43:38.478Z,99903.86
2019-02-18T14:48:43.932Z,99913.64
2019-02-18T14:53:49.613Z,99913.99
2019-02-18T14:58:55.398Z,99918.60
2019-02-18T15:04:01.020Z,99924.61
2019-02-18T15:09:07.855Z,99920.13
2019-02-18T15:14:13.550Z,99927.72
2019-02-18T15:19:19.414Z,99926.89
2019-02-18T15:24:25.024Z,99932.23
2019-02-18T15:29:30.592Z,99940.64
2019-02-18T15:34:36.257Z,99949.34
2019-02-18T15:39:41.784Z,99946.02
2019-02-18T15:44:52.269Z,99955.22
2019-02-18T15:49:57.942Z,99967.12
2019-02-18T15:55:04.169Z,99963.16
2019-02-18T16:00:13.204Z,99968.94
2019-02-18T16:05:18.638Z,99969.95
2019-02-18T16:10:24.139Z,99970.73
2019-02-18T16:15:29.562Z,99977.69
2019-02-18T16:20:35.083Z,99976.56
2019-02-18T16:25:40.550Z,99979.91
2019-02-18T16:30:46.269Z,99975.38
2019-02-18T16:35:51.841Z,99974.17
2019-02-18T16:40:57.409Z,99963.61
2019-02-18T16:46:03.631Z,99973.67
2019-02-18T16:51:09.785Z,99978.77
2019-02-18T16:56:15.382Z,99992.83
2019-02-18T17:01:21.262Z,99992.66
2019-02-18T17:06:26.756Z,99993.03
2019-02-18T17:11:32.181Z,99991.58
2019-02-18T17:16:37.680Z,100002.91
2019-02-18T17:26:55.443Z,100008.50
2019-02-18T17:32:01.047Z,100012.10
2019-02-18T17:37:06.811Z,100008.69
2019-02-18T17:42:12.360Z,100010.71
2019-02-18T17:47:18.340Z,100012.26
2019-02-18T17:52:25.251Z,100023.53
2019-02-18T17:57:31.002Z,100030.23
2019-02-18T18:02:39.002Z,100032.87
2019-02-18T18:07:44.721Z,100035.25
2019-02-18T18:12:50.381Z,100044.07
2019-02-18T18:17:56.062Z,100057.05
2019-02-18T18:23:01.843Z,100058.00
2019-02-18T18:28:07.356Z,100065.08
2019-02-18T18:33:13.041Z,100063.86
2019-02-18T18:38:18.781Z,100064.56
2019-02-18T18:43:33.427Z,100074.06
2019-02-18T18:48:32.162Z,100085.07
2019-02-18T18:53:37.681Z,100082.38
2019-02-18T18:58:43.174Z,100091.90
2019-02-18T19:03:49.987Z,100101.02
2019-02-18T19:08:55.492Z,100103.43
2019-02-18T19:14:01.221Z,100108.81
2019-02-18T19:19:06.960Z,100107.36
2019-02-18T19:24:12.780Z,100113.19
2019-02-18T19:29:18.281Z,100109.21
2019-02-18T19:34:23.920Z,100117.55
2019-02-18T19:39:29.520Z,100113.59
2019-02-18T19:44:35.341Z,100118.66
2019-02-18T19:49:40.961Z,100127.38
2019-02-18T19:54:46.582Z,100129.37
2019-02-18T19:59:52.132Z,100134.88
2019-02-18T20:04:57.903Z,100134.95
2019-02-18T20:10:05.037Z,100140.98
2019-02-18T20:15:11.199Z,100144.19
2019-02-18T20:20:17.038Z,100147.06
2019-02-18T20:25:22.782Z,100145.70
2019-02-18T20:30:28.437Z,100148.16
2019-02-18T20:35:34.054Z,100161.09
2019-02-18T20:40:39.948Z,100158.20
2019-02-18T20:45:45.743Z,100173.86
2019-02-18T20:50:51.480Z,100179.22
2019-02-18T20:55:59.637Z,100177.14
2019-02-18T21:01:05.373Z,100180.19
2019-02-18T21:06:11.006Z,100179.41
2019-02-18T21:11:16.619Z,100183.75
2019-02-18T21:16:22.341Z,100183.58
2019-02-18T21:21:28.820Z,100191.41
2019-02-18T21:26:36.684Z,100206.77
2019-02-18T21:31:41.862Z,100210.13
2019-02-18T21:36:47.620Z,100214.20
2019-02-18T21:41:53.161Z,100217.23
2019-02-18T21:46:58.702Z,100212.85
2019-02-18T21:52:04.240Z,100215.64
2019-02-18T21:57:09.920Z,100214.08
2019-02-18T22:02:15.576Z,100218.86
2019-02-18T22:07:21.362Z,100224.18
2019-02-18T22:12:27.379Z,100218.75
2019-02-18T22:17:32.965Z,100225.16
2019-02-18T22:22:38.879Z,100229.92
2019-02-18T22:27:45.103Z,100228.02
2019-02-18T22:32:50.658Z,100234.77
2019-02-18T22:37:56.601Z,100233.01
2019-02-18T22:43:02.202Z,100228.18
2019-02-18T22:48:07.902Z,100230.72
2019-02-18T22:53:13.540Z,100231.61
2019-02-18T22:58:20.485Z,100236.22
2019-02-18T23:03:26.362Z,100236.17
2019-02-18T23:08:31.964Z,100237.10
2019-02-18T23:13:38.102Z,100241.97
2019-02-18T23:18:43.760Z,100238.80
2019-02-18T23:23:49.304Z,100231.41
2019-02-18T23:28:54.842Z,100243.08
2019-02-18T23:34:00.282Z,100242.10
2019-02-18T23:39:07.387Z,100230.34
2019-02-18T23:44:13.143Z,100238.45
2019-02-18T23:49:18.645Z,100232.77
2019-02-18T23:54:24.060Z,100233.04
2019-02-18T23:59:29.497Z,100239.52
